A- A+ FrançaisEnglishEspañol中国

最近的 LFBT Tarbes-Lourdes-PyrénéesVHHH Hong Kong IntlEBSP Spa La SauveniereGMMN CasablancaWAJJ JayapuraLYTV Tivat

飞行员的航空天气,使用METAR(气象机场报告)进行的飞行准备和TAF(终端机场预报:针对以下情况的短期天气预报)航空)。 以及其他资源,例如VAC(目视进近图)和NOTAM(通知飞行员)以进行预试飞行.

METAR, TAF, VAC, NOTAM Bechar Ouakda (Boudghene?)机场 (阿尔及利亚) / OACI DAOR/ IATA CBH

它位于附近 Béchar (阿尔及利亚) 可提供5天天气预报 El Barga 在 3.8 km, Bechar 在 6 km, Bouarfa 在 103 km, Figuig (Centre) 在 111 km, Wilaya de Béchar 在 174 km, Aoufous 在 180 km, Erfoud 在 188 km, Rissani 在 194 km,

机场的高度为 Bechar Ouakda (Boudghene?)机场的

811 m = 2661 ft

附近的机场 Bechar Ouakda (Boudghene?)机场的

跑道 Bechar Ouakda (Boudghene?)机场的

METAR Bechar Ouakda (Boudghene?)机场的 - DAOR

DAOR 301500Z 09004KT 9999 FEW033 29/02 Q1019

Bechar Ouakda (Boudghene?)机场METAR解码 (阿尔及利亚)

DAOR机场发行的METAR日期2020年04月30日至15:00 GMT, 警告:此METAR已过期, 已于 30 天 21 小时 54 分钟.

可见度为大于 10 km = 大于6.2 sm.

温度为29°C = 84 °F 露点为2°C = 36 °F 。 这相当于18%的相对湿度。.

QNH是1019 hPa = 30.09 inHg

的风4 kt = 7 km/h, 风向为90°.

云:处少云3300 ft = 1010 m.

TAF Bechar Ouakda (Boudghene?)机场的 - DAOR

DAOR 301400Z 3015/3024 12012KT 9999 FEW033

Bechar Ouakda (Boudghene?)机场TAF解码 (阿尔及利亚)

DAOR机场发行的TAF日期2020年04月30日至14:00 GMT 警告:此TAF已过期, 已于 30 天 22 小时 54 分钟.

du jeudi 30 avril 2020 à 15:00 heure TU au jeudi 30 avril 2020 à 00:00 heure TU

的风12 kt = 22 km/h, 风向为120°.

可见度为大于 10 km = 大于6.2 sm.

处少云 3300 ft=1010云.

Bechar Ouakda (Boudghene?)机场的NOTAM

提供的NOTAM不能保证其时事性。 在将其用于飞行准备或在飞行期间使用之前,飞行员是唯一负责验证其有效性的人员。

没有通知

数据源